Terminal Aerodrome Forecast
Issued by NWS

Home | Current Version | Previous Version | Text Only | Print | Product List | Glossary On
Versions: 1 2 3 4 5 6 7 8 9 10 11 12 13 14 15 16
000
FTUS45 KSLC 041137
TAFOGD
TAF
KOGD 041137Z 0412/0512 17007KT P6SM SCT060 BKN100
     FM041800 17011KT P6SM BKN060 OVC100
     FM050200 17009KT P6SM VCSH SCT020 BKN040
     FM051000 32011KT 2SM -SHSN SCT009 BKN020=

USA.gov is the U.S. government's official web portal to all federal, state and local government web resources and services.